Time;durP1;ratioP1;P1;durP2;ratioP2;P2;SDS_P1;SDS_P2;PMS_P1;PMS_P2;Temp;Humidity;BMP_temperature;BMP_pressure;BME280_temperature;BME280_humidity;BME280_pressure;Samples;Min_cycle;Max_cycle;Signal;HPM_P1;HPM_P2
2022/06/04 00:02:02;;;;;;;13.15;4.32;;;;;;;16.00;79.36;100263.16;10256936;29;20127;-73
2022/06/04 00:07:03;;;;;;;13.93;4.90;;;;;;;16.04;79.89;100277.00;10257063;29;20439;-74
2022/06/04 00:17:24;;;;;;;16.25;5.22;;;;;;;16.13;79.37;100257.00;10256262;29;20054;-74
2022/06/04 00:22:24;;;;;;;10.27;4.53;;;;;;;15.56;79.50;100194.94;10257677;29;20043;-74
2022/06/04 00:27:25;;;;;;;17.73;4.85;;;;;;;15.19;79.84;100148.94;10256416;29;20061;-74
2022/06/04 00:32:26;;;;;;;45.80;6.53;;;;;;;15.27;79.90;100182.72;10255769;29;20043;-74
2022/06/04 00:37:26;;;;;;;30.90;6.43;;;;;;;15.70;80.25;100260.03;10256714;29;20514;-74
2022/06/04 00:42:27;;;;;;;10.85;4.78;;;;;;;15.59;81.29;100272.16;10256608;29;20054;-74
2022/06/04 00:47:28;;;;;;;14.07;4.07;;;;;;;15.40;81.55;100251.50;10255521;28;20075;-74
2022/06/04 00:52:29;;;;;;;16.95;4.78;;;;;;;15.71;81.85;100286.63;10255577;29;20047;-74
2022/06/04 00:58:04;;;;;;;65.30;8.45;;;;;;;15.76;83.84;100294.03;10255031;29;20047;-74
2022/06/04 01:03:26;;;;;;;12.73;4.63;;;;;;;15.39;85.39;100274.78;10250607;28;20407;-73
2022/06/04 01:08:27;;;;;;;35.03;6.65;;;;;;;15.53;83.00;100305.91;10253733;29;20107;-73
2022/06/04 01:13:51;;;;;;;18.20;5.53;;;;;;;15.67;86.40;100306.78;10254712;29;20125;-74
2022/06/04 01:19:41;;;;;;;30.30;6.70;;;;;;;15.59;86.33;100300.78;10245022;29;20528;-74
2022/06/04 01:25:03;;;;;;;29.65;6.90;;;;;;;15.66;84.20;100298.94;10254370;29;20043;-75
2022/06/04 01:30:16;;;;;;;16.98;6.10;;;;;;;15.57;86.23;100268.03;10253992;29;20042;-75
2022/06/04 01:35:23;;;;;;;15.40;5.85;;;;;;;15.51;85.45;100269.66;10253424;29;20509;-74
2022/06/04 01:45:56;;;;;;;11.63;5.15;;;;;;;15.72;84.83;100287.47;10253259;29;20039;-74
2022/06/04 01:50:59;;;;;;;15.18;5.10;;;;;;;15.97;84.40;100317.16;10254113;29;20059;-77
2022/06/04 01:56:05;;;;;;;48.07;6.80;;;;;;;15.95;85.02;100297.81;10254244;29;20511;-74
2022/06/04 02:01:15;;;;;;;16.38;5.47;;;;;;;16.16;85.13;100316.38;10253480;29;20496;-75
2022/06/04 02:06:27;;;;;;;10.70;4.82;;;;;;;15.37;85.53;100193.84;10251936;29;20416;-75
2022/06/04 02:11:30;;;;;;;15.18;4.60;;;;;;;15.43;84.51;100218.97;10252275;29;20039;-75
2022/06/04 02:16:36;;;;;;;11.93;4.65;;;;;;;16.15;85.41;100341.53;10251868;28;20078;-75
2022/06/04 02:21:37;;;;;;;11.35;4.18;;;;;;;16.23;84.02;100308.31;10252645;29;20400;-75
2022/06/04 02:26:41;;;;;;;11.80;4.57;;;;;;;16.03;83.53;100230.59;10252805;29;20519;-75
2022/06/04 02:31:50;;;;;;;13.70;5.00;;;;;;;16.83;83.06;100321.72;10251502;29;20039;-75
2022/06/04 02:37:03;;;;;;;14.10;4.97;;;;;;;17.14;81.81;100323.72;10251498;29;20051;-74
2022/06/04 02:42:26;;;;;;;21.75;5.45;;;;;;;17.23;82.01;100300.97;10251245;29;20118;-75
2022/06/04 02:47:34;;;;;;;47.92;8.02;;;;;;;17.52;79.53;100318.38;10251440;29;20114;-75
2022/06/04 02:52:35;;;;;;;30.00;6.53;;;;;;;17.65;78.30;100282.59;10250781;29;20050;-75
2022/06/04 02:57:41;;;;;;;20.63;6.40;;;;;;;18.20;76.20;100272.06;10252244;29;20439;-75
2022/06/04 03:02:42;;;;;;;12.23;5.50;;;;;;;18.35;73.99;100191.06;10252031;29;20051;-75
2022/06/04 03:07:46;;;;;;;19.20;5.90;;;;;;;19.56;71.85;100294.44;10265586;28;20053;-75
2022/06/04 03:12:47;;;;;;;35.78;6.72;;;;;;;20.04;70.80;100303.50;10251769;28;20051;-74
2022/06/04 03:17:49;;;;;;;14.70;5.85;;;;;;;19.97;69.52;100206.53;10280539;28;20042;-75
2022/06/04 03:22:51;;;;;;;28.15;5.65;;;;;;;21.14;67.30;100312.78;10291054;28;20137;-76
2022/06/04 03:27:51;;;;;;;43.38;6.38;;;;;;;20.95;66.29;100229.25;10291582;28;20046;-76
2022/06/04 03:32:54;;;;;;;13.80;5.22;;;;;;;21.48;64.94;100311.09;10258886;29;20043;-75
2022/06/04 03:37:54;;;;;;;15.57;5.32;;;;;;;21.20;63.79;100184.88;10257875;29;20493;-75
2022/06/04 03:42:55;;;;;;;19.08;5.38;;;;;;;21.91;62.63;100227.78;10258775;29;20047;-75
2022/06/04 03:47:56;;;;;;;22.10;5.85;;;;;;;23.05;60.76;100305.81;10257354;28;20136;-76
2022/06/04 03:52:57;;;;;;;29.98;7.13;;;;;;;22.79;61.31;100280.25;10258136;29;20501;-75
2022/06/04 03:57:58;;;;;;;14.52;5.22;;;;;;;23.02;59.85;100269.22;10257826;29;20054;-74
2022/06/04 04:03:06;;;;;;;19.90;6.10;;;;;;;22.84;59.82;100284.94;10256863;29;20086;-75
2022/06/04 04:08:09;;;;;;;25.35;6.03;;;;;;;22.90;59.49;100275.78;10256788;29;20043;-75
2022/06/04 04:13:11;;;;;;;18.52;6.63;;;;;;;23.11;58.97;100272.28;10257406;29;20046;-75
2022/06/04 04:18:12;;;;;;;18.00;6.30;;;;;;;23.90;57.80;100298.94;10257135;29;20042;-75
2022/06/04 04:23:13;;;;;;;15.10;5.18;;;;;;;24.37;57.50;100281.13;10256156;29;20043;-75
2022/06/04 04:28:14;;;;;;;19.67;6.32;;;;;;;24.66;56.88;100268.03;10256390;29;20047;-75
2022/06/04 04:33:14;;;;;;;20.08;5.75;;;;;;;24.66;56.46;100267.22;10255717;29;20090;-75
2022/06/04 04:38:18;;;;;;;12.23;4.45;;;;;;;24.89;56.57;100263.22;10255490;28;20043;-74
2022/06/04 04:43:19;;;;;;;;;;;;;;;25.57;55.43;100276.81;10257232;29;20398;-76
2022/06/04 04:48:20;;;;;;;15.60;4.68;;;;;;;25.22;56.06;100260.16;10255468;28;19973;-76
2022/06/04 04:53:21;;;;;;;20.80;3.97;;;;;;;25.55;54.17;100251.78;10255665;29;20053;-76
2022/06/04 04:58:21;;;;;;;19.05;3.80;;;;;;;25.20;53.74;100147.34;10255411;29;20163;-75
2022/06/04 05:03:22;;;;;;;18.15;4.78;;;;;;;25.90;52.92;100235.50;10254954;29;20065;-75
2022/06/04 05:08:23;;;;;;;27.52;4.40;;;;;;;26.21;52.80;100265.47;10254324;29;20043;-74
2022/06/04 05:13:23;;;;;;;18.20;4.57;;;;;;;25.59;52.82;100141.38;10254338;29;20035;-75
2022/06/04 05:18:24;;;;;;;18.63;4.93;;;;;;;26.01;53.50;100241.78;10251443;29;20047;-76
2022/06/04 05:23:25;;;;;;;20.80;5.10;;;;;;;26.14;52.82;100246.66;10222348;29;20040;-74
2022/06/04 05:28:26;;;;;;;25.60;5.20;;;;;;;26.07;51.70;100246.13;10254172;29;20527;-74
2022/06/04 05:33:26;;;;;;;50.90;7.28;;;;;;;26.22;52.08;100247.22;10254155;29;20043;-74
2022/06/04 05:38:27;;;;;;;12.40;4.05;;;;;;;26.33;51.26;100265.19;10254369;29;20455;-75
2022/06/04 05:43:29;;;;;;;27.73;5.55;;;;;;;26.47;51.31;100251.78;10253476;29;20047;-74
2022/06/04 05:48:30;;;;;;;24.25;4.38;;;;;;;26.68;49.09;100253.41;10252814;29;20484;-75
2022/06/04 05:53:31;;;;;;;16.85;3.83;;;;;;;26.18;48.75;100160.63;10252841;28;20043;-72
2022/06/04 05:58:31;;;;;;;40.80;4.35;;;;;;;26.74;46.55;100202.41;10252521;29;20042;-71
2022/06/04 06:03:32;;;;;;;16.20;1.90;;;;;;;27.46;43.06;100266.44;10253340;29;20517;-73
2022/06/04 06:08:33;;;;;;;12.02;1.73;;;;;;;27.69;41.14;100262.19;10252161;29;20047;-72
2022/06/04 06:13:34;;;;;;;22.05;2.72;;;;;;;27.63;40.25;100222.38;10251944;29;20039;-71
2022/06/04 06:18:35;;;;;;;12.15;2.67;;;;;;;27.84;40.57;100271.41;10252481;29;20046;-72
2022/06/04 06:23:36;;;;;;;16.48;6.18;;;;;;;27.81;40.71;100280.16;10252216;29;20043;-73
2022/06/04 06:28:39;;;;;;;9.43;2.72;;;;;;;26.80;40.29;100104.03;10252474;29;20047;-72
2022/06/04 06:33:40;;;;;;;11.97;2.80;;;;;;;27.47;39.94;100177.22;10252053;29;20039;-72
2022/06/04 06:38:40;;;;;;;12.88;2.30;;;;;;;27.81;39.23;100198.28;10251464;29;20412;-72
2022/06/04 06:43:46;;;;;;;10.32;1.95;;;;;;;27.75;40.21;100214.66;10251944;29;20384;-73
2022/06/04 06:48:49;;;;;;;17.98;2.58;;;;;;;27.20;40.53;100144.97;10251747;29;20074;-74
2022/06/04 06:53:50;;;;;;;14.82;2.00;;;;;;;27.38;40.56;100189.84;10234494;29;20470;-72
2022/06/04 06:58:52;;;;;;;20.90;2.17;;;;;;;27.46;39.30;100202.88;10251456;29;20090;-72
2022/06/04 07:03:55;;;;;;;25.63;2.45;;;;;;;27.42;38.24;100224.44;10256022;28;20478;-73
2022/06/04 07:08:56;;;;;;;11.60;2.60;;;;;;;26.59;38.19;100103.34;10260193;28;20142;-72
2022/06/04 07:13:56;;;;;;;10.98;1.65;;;;;;;27.28;37.91;100223.44;10260194;29;20130;-73
2022/06/04 07:18:58;;;;;;;9.68;1.63;;;;;;;27.24;37.82;100230.56;10258689;29;20069;-72
2022/06/04 07:23:59;;;;;;;10.95;1.90;;;;;;;27.17;37.40;100198.16;10259016;29;20045;-71
2022/06/04 07:29:00;;;;;;;16.90;2.13;;;;;;;27.27;37.42;100181.72;10241946;29;20047;-73
2022/06/04 07:34:01;;;;;;;15.50;2.08;;;;;;;27.42;37.56;100188.19;10259095;29;20414;-72
2022/06/04 07:39:07;;;;;;;13.02;1.77;;;;;;;27.74;36.22;100210.31;10257744;29;20523;-73
2022/06/04 07:44:08;;;;;;;5.40;1.75;;;;;;;28.41;35.88;100179.66;10257607;29;20075;-71
2022/06/04 07:49:11;;;;;;;24.90;2.15;;;;;;;29.09;35.23;100164.88;10257667;29;20082;-72
2022/06/04 07:54:12;;;;;;;16.60;1.60;;;;;;;29.46;34.07;100142.13;10256894;29;20047;-72
2022/06/04 07:59:16;;;;;;;11.60;2.70;;;;;;;30.09;33.20;100161.88;10240160;29;20110;-73
2022/06/04 08:04:17;;;;;;;5.78;1.50;;;;;;;30.06;31.39;100080.31;10239287;29;20491;-73
2022/06/04 08:09:18;;;;;;;8.18;1.55;;;;;;;30.87;30.75;100149.09;10254117;28;20039;-71
2022/06/04 08:14:24;;;;;;;8.32;1.60;;;;;;;31.22;28.67;100150.22;10266561;28;20047;-71
2022/06/04 08:19:29;;;;;;;6.35;1.33;;;;;;;31.58;26.73;100149.38;10256865;28;20070;-71
2022/06/04 08:24:31;;;;;;;5.53;1.42;;;;;;;31.31;26.44;100120.09;10256965;29;20075;-70
2022/06/04 08:29:34;;;;;;;11.95;1.98;;;;;;;31.41;26.54;100036.69;10256634;29;20039;-72
2022/06/04 08:34:35;;;;;;;9.55;1.20;;;;;;;32.00;25.12;100100.50;10255808;29;20086;-71
2022/06/04 08:39:36;;;;;;;33.08;3.13;;;;;;;32.29;25.93;100097.19;10254830;29;20063;-70
2022/06/04 08:44:43;;;;;;;5.03;1.10;;;;;;;32.44;26.10;100101.44;10255997;29;20510;-72
2022/06/04 08:49:47;;;;;;;12.85;1.70;;;;;;;32.46;26.27;100108.28;10255182;28;20059;-72
2022/06/04 09:00:13;;;;;;;11.13;1.75;;;;;;;32.40;25.24;100050.97;10295107;28;20035;-70
2022/06/04 09:05:45;;;;;;;6.68;1.30;;;;;;;32.76;22.62;100105.72;10295222;28;20050;-70
2022/06/04 09:10:51;;;;;;;9.93;1.70;;;;;;;32.48;24.43;100062.00;10294806;28;20045;-71
2022/06/04 09:15:56;;;;;;;10.38;1.63;;;;;;;32.76;23.62;100091.13;10254386;28;20447;-71
2022/06/04 09:21:00;;;;;;;10.82;2.30;;;;;;;32.80;24.92;100061.88;10268504;28;20482;-71
2022/06/04 09:26:15;;;;;;;12.05;1.75;;;;;;;32.60;23.27;99995.38;10264230;28;20047;-70
2022/06/04 09:31:24;;;;;;;11.55;2.05;;;;;;;33.17;21.37;100069.47;10268779;28;20651;-70
2022/06/04 09:36:30;;;;;;;5.22;1.63;;;;;;;33.12;22.12;100071.59;10250223;28;20039;-71
2022/06/04 09:41:33;;;;;;;16.60;2.35;;;;;;;33.04;23.51;100075.97;10253340;29;20503;-71
2022/06/04 09:46:35;;;;;;;12.75;1.60;;;;;;;33.17;23.36;100036.44;10252713;28;20047;-71
2022/06/04 09:51:41;;;;;;;12.65;2.08;;;;;;;32.85;23.28;99976.44;10252397;28;20070;-70
2022/06/04 09:56:43;;;;;;;22.33;3.38;;;;;;;33.55;23.45;100052.25;10235632;29;20047;-70
2022/06/04 10:02:20;;;;;;;29.02;3.90;;;;;;;33.25;23.02;99954.19;10252333;29;20050;-71
2022/06/04 10:07:33;;;;;;;22.95;3.28;;;;;;;33.87;22.73;100030.72;10243561;29;20055;-71
2022/06/04 10:18:22;;;;;;;60.95;4.60;;;;;;;34.16;23.83;100007.88;10252108;29;20051;-71
2022/06/04 10:23:23;;;;;;;14.57;3.65;;;;;;;34.07;24.01;99988.66;10251418;29;20082;-70
2022/06/04 10:28:50;;;;;;;22.23;3.80;;;;;;;34.18;23.21;99985.50;10252110;29;20066;-71
2022/06/04 10:34:16;;;;;;;36.65;3.70;;;;;;;34.24;24.50;99990.47;10252705;29;20070;-69
2022/06/04 10:39:30;;;;;;;49.95;5.63;;;;;;;33.19;23.32;99804.94;10252633;28;20439;-72
2022/06/04 10:44:54;;;;;;;31.45;5.00;;;;;;;32.62;24.54;99709.88;10251714;29;20043;-71
2022/06/04 10:50:19;;;;;;;43.67;4.95;;;;;;;34.49;23.57;99977.63;10234955;29;20066;-70
2022/06/04 10:55:44;;;;;;;26.23;4.70;;;;;;;34.58;23.26;99965.72;10234600;29;20050;-71
2022/06/04 11:01:08;;;;;;;21.30;3.75;;;;;;;34.79;22.89;99990.53;10251756;29;20141;-71
2022/06/04 11:06:18;;;;;;;28.75;3.85;;;;;;;34.16;22.27;99902.31;10200315;29;20058;-72
2022/06/04 11:11:34;;;;;;;30.63;4.35;;;;;;;34.34;22.68;99922.28;10255103;28;20054;-71
2022/06/04 11:16:42;;;;;;;30.25;4.22;;;;;;;34.68;23.07;99962.56;10258282;28;20039;-69
2022/06/04 11:22:01;;;;;;;20.17;3.78;;;;;;;34.80;22.20;99994.91;10264360;28;20039;-73
2022/06/04 11:27:14;;;;;;;42.88;5.15;;;;;;;34.81;22.40;99968.94;10267031;28;20074;-72
2022/06/04 11:32:26;;;;;;;22.38;3.78;;;;;;;34.75;20.74;99962.81;10268565;28;20043;-73
2022/06/04 11:37:41;;;;;;;21.85;3.30;;;;;;;34.28;22.25;99861.03;10256411;28;20047;-71
2022/06/04 11:42:55;;;;;;;72.55;5.80;;;;;;;34.63;21.36;99908.41;10247222;29;20569;-72
2022/06/04 11:48:30;;;;;;;40.13;4.10;;;;;;;34.90;21.29;99923.53;10248889;28;20073;-71
2022/06/04 11:53:34;;;;;;;17.85;3.45;;;;;;;34.66;21.52;99923.47;10257416;29;20043;-71
2022/06/04 11:59:15;;;;;;;31.63;4.20;;;;;;;34.73;22.07;99921.78;10256943;29;20047;-73
2022/06/04 12:04:25;;;;;;;30.48;3.88;;;;;;;34.76;21.63;99917.50;10257004;29;20042;-71
2022/06/04 12:09:51;;;;;;;42.78;7.28;;;;;;;34.81;22.54;99922.81;10256785;29;20050;-72
2022/06/04 12:15:23;;;;;;;22.75;3.85;;;;;;;34.83;21.16;99911.47;10257837;29;20039;-72
2022/06/04 12:26:01;;;;;;;18.33;3.20;;;;;;;34.35;21.19;99902.66;10256482;29;20501;-72
2022/06/04 12:31:02;;;;;;;18.63;2.70;;;;;;;33.79;20.67;99805.66;10256783;29;20483;-73
2022/06/04 12:36:10;;;;;;;49.95;5.65;;;;;;;34.48;20.85;99907.06;10257006;29;20046;-72
2022/06/04 12:41:20;;;;;;;75.10;6.75;;;;;;;34.43;20.27;99898.19;10256763;29;20083;-71
2022/06/04 12:46:24;;;;;;;21.17;3.00;;;;;;;34.03;20.72;99803.03;10255201;29;20073;-71
2022/06/04 12:51:37;;;;;;;14.40;3.03;;;;;;;34.73;20.42;99896.13;10254694;28;20067;-72
2022/06/04 12:56:39;;;;;;;13.75;2.78;;;;;;;34.71;20.77;99881.88;10240010;28;20074;-72
2022/06/04 13:01:40;;;;;;;20.90;3.10;;;;;;;34.66;20.72;99882.09;10254045;28;20055;-72
2022/06/04 13:06:51;;;;;;;24.73;3.58;;;;;;;34.77;20.74;99880.50;10254231;29;20050;-74
2022/06/04 13:12:07;;;;;;;32.38;3.88;;;;;;;34.59;20.64;99863.34;10252404;29;20062;-74
2022/06/04 13:17:35;;;;;;;19.67;3.08;;;;;;;34.35;20.91;99833.72;10248398;28;20517;-75
2022/06/04 13:22:52;;;;;;;30.65;4.03;;;;;;;34.28;21.17;99838.97;10256920;28;20038;-74
2022/06/04 13:27:54;;;;;;;16.55;2.97;;;;;;;34.21;21.22;99819.44;10272147;28;20123;-74
2022/06/04 13:33:11;;;;;;;;;;;;;;;34.36;20.72;99826.25;10274455;28;20458;-73
2022/06/04 13:38:40;;;;;;;25.02;2.97;;;;;;;34.14;20.72;99825.50;10261570;28;20289;-73
2022/06/04 13:43:44;;;;;;;12.13;2.95;;;;;;;33.95;20.75;99814.91;10271052;28;20039;-73
2022/06/04 17:13:23;;;;;;;28.60;3.30;;;;;;;27.27;29.73;99760.94;10489977;27;20406;-81
2022/06/04 17:19:01;;;;;;;22.05;3.10;;;;;;;27.77;29.89;99865.84;10450981;28;20442;-80
2022/06/04 17:24:30;;;;;;;20.48;3.40;;;;;;;27.59;30.01;99880.28;10452382;28;20063;-78
2022/06/04 17:29:50;;;;;;;20.20;3.17;;;;;;;27.41;30.18;99889.22;10477443;28;20051;-71
2022/06/04 17:35:18;;;;;;;16.58;3.08;;;;;;;27.25;29.92;99873.06;10450301;28;20049;-68
2022/06/04 17:40:48;;;;;;;21.25;3.42;;;;;;;27.15;30.38;99908.59;10426156;28;20481;-78
2022/06/04 17:45:49;;;;;;;23.75;3.40;;;;;;;26.98;30.68;99905.47;10423383;28;20059;-72
2022/06/04 17:50:51;;;;;;;18.80;3.15;;;;;;;26.84;30.60;99899.88;10420987;28;20390;-71
2022/06/04 17:55:52;;;;;;;18.48;3.70;;;;;;;26.10;31.07;99812.75;10442276;28;20493;-71
2022/06/04 18:00:52;;;;;;;30.58;3.13;;;;;;;26.19;31.39;99865.50;10445672;28;20042;-69
2022/06/04 18:05:54;;;;;;;16.73;3.08;;;;;;;26.50;31.77;99924.41;10467927;28;20041;-72
2022/06/04 18:10:55;;;;;;;23.25;3.42;;;;;;;25.81;31.89;99828.97;10454701;28;20083;-72
2022/06/04 18:15:56;;;;;;;20.60;2.78;;;;;;;26.36;31.71;99918.78;10453827;28;20066;-71
2022/06/04 18:20:57;;;;;;;21.67;3.53;;;;;;;26.29;32.08;99908.19;10454730;28;20049;-70
2022/06/04 18:25:58;;;;;;;19.70;2.90;;;;;;;26.22;31.68;99885.91;10418388;28;20068;-71
2022/06/04 18:30:59;;;;;;;18.00;2.58;;;;;;;26.25;31.37;99879.91;10418242;28;20068;-71
2022/06/04 18:36:06;;;;;;;16.35;3.05;;;;;;;25.72;31.72;99801.56;10406944;28;20044;-71
2022/06/04 18:41:09;;;;;;;14.52;2.58;;;;;;;26.27;31.30;99904.94;10376948;28;20030;-71
2022/06/04 18:56:52;;;;;;;33.78;4.05;;;;;;;26.01;31.35;99868.91;10429441;28;20052;-71
2022/06/04 19:01:54;;;;;;;19.17;2.63;;;;;;;25.31;31.87;99781.13;10421474;28;20405;-70
2022/06/04 19:06:58;;;;;;;19.02;2.75;;;;;;;25.76;31.97;99872.56;10444179;28;20128;-72
2022/06/04 19:17:18;;;;;;;21.80;3.03;;;;;;;25.48;32.55;99883.00;10428892;28;20045;-69
2022/06/04 19:27:37;;;;;;;28.30;2.40;;;;;;;25.00;33.30;99830.94;10457575;28;20420;-71
2022/06/04 19:32:38;;;;;;;17.25;2.60;;;;;;;24.18;34.11;99735.22;10421151;28;20060;-71
2022/06/04 19:37:39;;;;;;;22.85;3.00;;;;;;;24.93;35.05;99863.03;10415458;28;20072;-70
2022/06/04 19:42:39;;;;;;;19.67;2.83;;;;;;;24.78;35.76;99866.59;10415592;28;20048;-70
2022/06/04 19:47:40;;;;;;;17.92;2.28;;;;;;;24.02;36.68;99753.41;10415447;28;20041;-72
2022/06/04 19:58:00;;;;;;;17.98;3.03;;;;;;;24.47;36.92;99873.94;10416182;28;20467;-71
2022/06/04 20:03:01;;;;;;;20.00;3.28;;;;;;;24.32;36.91;99865.75;10414083;28;20091;-69
2022/06/04 20:08:02;;;;;;;20.33;3.25;;;;;;;23.71;37.39;99805.97;10415080;28;20033;-69
2022/06/04 20:13:03;;;;;;;25.13;2.60;;;;;;;23.57;37.96;99822.72;10415223;28;20065;-70
2022/06/04 20:18:06;;;;;;;21.30;3.15;;;;;;;22.82;38.56;99735.41;10414783;28;20045;-70
2022/06/04 20:23:10;;;;;;;20.03;2.70;;;;;;;23.42;39.32;99842.47;10414424;28;20045;-71
2022/06/04 20:28:11;;;;;;;15.70;3.25;;;;;;;23.38;39.56;99851.38;10414353;28;20041;-70
2022/06/04 20:33:11;;;;;;;22.88;3.03;;;;;;;23.21;40.13;99859.69;10414165;28;20072;-70
2022/06/04 20:38:12;;;;;;;15.82;3.25;;;;;;;22.37;40.46;99741.38;10413920;28;20493;-70
2022/06/04 20:43:14;;;;;;;25.85;3.83;;;;;;;22.96;41.16;99846.84;10413199;28;20051;-70
2022/06/04 20:48:15;;;;;;;20.25;2.97;;;;;;;22.84;41.93;99830.75;10413815;28;20076;-72
2022/06/04 20:53:16;;;;;;;18.63;3.08;;;;;;;22.08;42.41;99720.88;10412162;28;20543;-70
2022/06/04 20:58:17;;;;;;;19.73;3.05;;;;;;;22.66;43.11;99831.19;10412661;28;20064;-71
2022/06/04 21:03:18;;;;;;;16.15;2.95;;;;;;;22.16;43.72;99768.25;10413623;28;20037;-69
2022/06/04 21:08:19;;;;;;;21.13;3.90;;;;;;;22.19;44.40;99780.47;10413168;28;20041;-72
2022/06/04 21:13:21;;;;;;;32.80;2.75;;;;;;;22.24;45.43;99800.28;10411728;28;20463;-72
2022/06/04 21:18:22;;;;;;;21.85;2.63;;;;;;;22.01;46.00;99784.34;10412611;28;20128;-70
2022/06/04 21:23:23;;;;;;;17.90;2.63;;;;;;;22.11;46.50;99806.91;10413963;28;20572;-72
2022/06/04 21:28:23;;;;;;;13.75;2.65;;;;;;;21.89;47.08;99793.44;10412930;28;20397;-74
2022/06/04 21:33:24;;;;;;;12.55;2.20;;;;;;;21.69;47.57;99797.81;10412676;28;20088;-73
2022/06/04 21:38:25;;;;;;;12.02;2.42;;;;;;;21.82;47.91;99830.69;10412836;28;20045;-73
2022/06/04 21:43:26;;;;;;;18.27;2.80;;;;;;;20.52;48.39;99642.28;10412915;28;20087;-73
2022/06/04 21:48:27;;;;;;;16.55;2.45;;;;;;;21.70;48.76;99846.25;10412566;28;20048;-73
2022/06/04 21:53:27;;;;;;;20.92;2.97;;;;;;;21.58;49.23;99840.97;10411620;28;20065;-73
2022/06/04 21:58:29;;;;;;;20.13;2.83;;;;;;;20.70;49.36;99729.38;10416702;28;20069;-72
2022/06/04 22:03:31;;;;;;;16.38;2.75;;;;;;;21.11;49.99;99825.22;10419669;28;20038;-73
2022/06/04 22:08:31;;;;;;;16.45;2.40;;;;;;;21.22;50.18;99839.69;10420036;28;20048;-72
2022/06/04 22:13:33;;;;;;;9.95;2.30;;;;;;;21.17;50.52;99840.44;10418317;28;20041;-72
2022/06/04 22:18:34;;;;;;;15.60;2.60;;;;;;;21.17;51.02;99842.31;10412080;28;20061;-73
2022/06/04 22:23:35;;;;;;;17.35;3.05;;;;;;;21.11;51.33;99827.13;10377711;28;20434;-73
2022/06/04 22:28:36;;;;;;;12.07;1.92;;;;;;;21.06;52.29;99838.69;10380105;28;20489;-73
2022/06/04 22:33:37;;;;;;;15.77;2.92;;;;;;;20.92;52.78;99823.91;10412422;28;20303;-75
2022/06/04 22:38:38;;;;;;;14.77;2.83;;;;;;;20.91;52.88;99812.28;10411678;28;20053;-74
2022/06/04 22:43:43;;;;;;;22.08;3.08;;;;;;;20.75;54.56;99824.72;10411961;28;20041;-74
2022/06/04 22:48:44;;;;;;;29.80;3.53;;;;;;;20.34;54.02;99792.75;10411433;28;20052;-76
2022/06/04 22:53:45;;;;;;;13.93;2.80;;;;;;;20.35;54.93;99811.41;10415751;28;20034;-73
2022/06/04 22:58:46;;;;;;;14.50;2.92;;;;;;;20.46;55.50;99833.94;10417198;28;20479;-75
2022/06/04 23:03:47;;;;;;;15.43;3.60;;;;;;;20.09;56.00;99779.69;10417920;28;20132;-73
2022/06/04 23:08:47;;;;;;;16.10;2.92;;;;;;;20.37;56.65;99836.28;10416459;28;20581;-74
2022/06/04 23:24:33;;;;;;;11.02;3.17;;;;;;;20.26;57.11;99780.50;10416801;28;20072;-73
2022/06/04 23:29:34;;;;;;;22.42;3.63;;;;;;;20.40;57.48;99800.72;10416385;28;20045;-72
2022/06/04 23:34:35;;;;;;;18.95;3.40;;;;;;;20.49;58.00;99818.13;10416459;28;20045;-73
2022/06/04 23:39:36;;;;;;;9.68;2.92;;;;;;;20.49;58.08;99811.88;10415855;28;20537;-72
2022/06/04 23:44:39;;;;;;;15.52;3.83;;;;;;;20.39;58.69;99785.56;10415363;28;20048;-74
2022/06/04 23:49:40;;;;;;;21.23;4.50;;;;;;;20.38;59.01;99778.53;10415746;28;20436;-73
2022/06/04 23:54:41;;;;;;;25.10;4.18;;;;;;;19.21;59.39;99569.09;10415823;28;20068;-73
2022/06/04 23:59:41;;;;;;;27.13;6.05;;;;;;;20.43;59.92;99762.44;10415619;28;20562;-74
